Terminal Aerodrome Forecast
Issued by NWS Billings, MT

Home | Current Version | Previous Version | Graphics & Text | Print | Product List | Glossary Off
Versions: 1 2 3 4 5 6 7 8 9 10 11 12 13 14 15 16 17 18 19 20 21 22 23 24 25 26 27 28 29 30 31 32 33 34 35 36 37

000
FTUS45 KBYZ 052327
TAFMLS
TAF
KMLS 052327Z 0600/0624 25012G20KT P6SM FEW250
     FM061000 25025G40KT P6SM FEW150
     FM061300 27035G50KT P6SM SCT100
     FM061600 27025G40KT P6SM BKN110
     FM062000 26040G55KT P6SM SCT100=

USA.gov is the U.S. government's official web portal to all federal, state and local government web resources and services.